Wetterdaten: Woche 11.09.06 - 17.09.06 (KW37)
Datum Zeit Temperatur Luftfeuchte Luftdruck Niederschlag Wind Richtung Sonnenschein UV-Strahlung Solar Taupunkt Windchill Windben
11.09.2006 00:00 17.0 C 98 % 1023.2 hPa 0.0 l/m 0.3 km/h (0 Bft) O 0.00 h 0.0 UV-I 0 W/m 16.7 C 17.0 C 0.9 km/h (0 Bft)
11.09.2006 01:00 16.5 C 98 % 1023.0 hPa 0.0 l/m 0.7 km/h (0 Bft) O-SO 0.00 h 0.0 UV-I 0 W/m 16.3 C 16.5 C 1.6 km/h (1 Bft)
11.09.2006 02:00 16.1 C 99 % 1023.0 hPa 0.0 l/m 1.6 km/h (1 Bft) O-SO 0.00 h 0.0 UV-I 0 W/m 15.9 C 16.1 C 2.2 km/h (1 Bft)
11.09.2006 03:00 16.1 C 98 % 1022.6 hPa 0.0 l/m 3.1 km/h (1 Bft) SO 0.00 h 0.0 UV-I 0 W/m 15.8 C 16.1 C 4.8 km/h (1 Bft)
11.09.2006 04:00 16.3 C 96 % 1022.4 hPa 0.0 l/m 4.2 km/h (1 Bft) O-SO 0.00 h 0.0 UV-I 0 W/m 15.7 C 16.3 C 5.9 km/h (2 Bft)
11.09.2006 05:00 16.4 C 95 % 1022.5 hPa 0.0 l/m 0.4 km/h (0 Bft) O 0.00 h 0.0 UV-I 0 W/m 15.6 C 16.4 C 1.1 km/h (1 Bft)
11.09.2006 06:00 15.7 C 98 % 1022.4 hPa 0.0 l/m 0.0 km/h (0 Bft) N 0.00 h 0.0 UV-I 0 W/m 15.4 C 15.7 C 0.1 km/h (0 Bft)
11.09.2006 07:00 15.5 C 99 % 1022.4 hPa 0.0 l/m 0.0 km/h (0 Bft) N 0.00 h 0.0 UV-I 32 W/m 15.3 C 15.5 C 0.2 km/h (0 Bft)
11.09.2006 08:00 16.2 C 97 % 1022.4 hPa 0.0 l/m 1.0 km/h (0 Bft) O-SO 0.25 h 0.6 UV-I 123 W/m 15.8 C 16.2 C 2.0 km/h (1 Bft)
11.09.2006 09:00 17.0 C 95 % 1022.5 hPa 0.0 l/m 0.8 km/h (0 Bft) O-NO 0.00 h 1.0 UV-I 156 W/m 16.2 C 17.0 C 2.2 km/h (1 Bft)
11.09.2006 10:00 18.7 C 89 % 1022.5 hPa 0.0 l/m 1.4 km/h (1 Bft) W-NW 0.08 h 2.0 UV-I 298 W/m 16.8 C 18.7 C 3.1 km/h (1 Bft)
11.09.2006 11:00 20.9 C 80 % 1022.3 hPa 0.0 l/m 1.0 km/h (0 Bft) W-NW 0.65 h 3.4 UV-I 447 W/m 17.2 C 20.9 C 2.4 km/h (1 Bft)
11.09.2006 12:00 21.8 C 75 % 1021.8 hPa 0.0 l/m 2.0 km/h (1 Bft) S-SO 0.00 h 3.2 UV-I 329 W/m 17.3 C 21.8 C 4.2 km/h (1 Bft)
11.09.2006 13:00 23.2 C 70 % 1021.3 hPa 0.0 l/m 1.7 km/h (1 Bft) S-SO 0.48 h 4.5 UV-I 536 W/m 17.3 C 23.2 C 3.7 km/h (1 Bft)
11.09.2006 14:00 24.1 C 65 % 1020.8 hPa 0.0 l/m 1.5 km/h (1 Bft) S-SO 0.08 h 3.4 UV-I 394 W/m 17.0 C 24.1 C 3.4 km/h (1 Bft)
11.09.2006 15:00 24.9 C 62 % 1020.1 hPa 0.0 l/m 0.8 km/h (0 Bft) O-SO 0.45 h 2.9 UV-I 390 W/m 17.2 C 24.9 C 2.5 km/h (1 Bft)
11.09.2006 16:00 25.8 C 60 % 1019.4 hPa 0.0 l/m 0.9 km/h (0 Bft) N 0.98 h 2.1 UV-I 402 W/m 17.3 C 25.8 C 2.5 km/h (1 Bft)
11.09.2006 17:00 26.3 C 56 % 1018.9 hPa 0.0 l/m 1.0 km/h (0 Bft) N-NO 0.88 h 1.0 UV-I 340 W/m 16.7 C 26.3 C 2.5 km/h (1 Bft)
11.09.2006 18:00 25.2 C 58 % 1018.7 hPa 0.0 l/m 2.0 km/h (1 Bft) S-SO 0.45 h 0.5 UV-I 144 W/m 16.3 C 25.2 C 4.4 km/h (1 Bft)
11.09.2006 19:00 23.4 C 68 % 1018.8 hPa 0.0 l/m 4.1 km/h (1 Bft) O-SO 0.08 h 0.0 UV-I 33 W/m 17.0 C 23.4 C 5.7 km/h (1 Bft)
11.09.2006 20:00 21.8 C 72 % 1018.9 hPa 0.0 l/m 3.0 km/h (1 Bft) O-SO 0.00 h 0.0 UV-I 0 W/m 16.5 C 21.8 C 4.1 km/h (1 Bft)
11.09.2006 21:00 19.9 C 81 % 1019.3 hPa 0.0 l/m 2.5 km/h (1 Bft) O 0.00 h 0.0 UV-I 0 W/m 16.5 C 19.9 C 3.4 km/h (1 Bft)
11.09.2006 22:00 18.9 C 85 % 1019.7 hPa 0.0 l/m 2.7 km/h (1 Bft) O-SO 0.00 h 0.0 UV-I 0 W/m 16.4 C 18.9 C 4.3 km/h (1 Bft)
11.09.2006 23:00 18.6 C 88 % 1019.9 hPa 0.0 l/m 0.8 km/h (0 Bft) W-NW 0.00 h 0.0 UV-I 0 W/m 16.6 C 18.6 C 2.0 km/h (1 Bft)
12.09.2006 00:00 18.5 C 83 % 1020.0 hPa 0.0 l/m 1.7 km/h (1 Bft) O-SO 0.00 h 0.0 UV-I 0 W/m 15.5 C 18.5 C 2.8 km/h (1 Bft)
12.09.2006 01:00 17.7 C 83 % 1019.6 hPa 0.0 l/m 0.6 km/h (0 Bft) O-SO 0.00 h 0.0 UV-I 0 W/m 14.7 C 17.7 C 1.3 km/h (1 Bft)
12.09.2006 02:00 16.6 C 88 % 1019.2 hPa 0.0 l/m 1.2 km/h (1 Bft) O-SO 0.00 h 0.0 UV-I 0 W/m 14.7 C 16.6 C 2.3 km/h (1 Bft)
12.09.2006 03:00 15.8 C 91 % 1019.2 hPa 0.0 l/m 2.0 km/h (1 Bft) O-SO 0.00 h 0.0 UV-I 0 W/m 14.3 C 15.8 C 3.2 km/h (1 Bft)
12.09.2006 04:00 15.1 C 94 % 1019.2 hPa 0.0 l/m 2.0 km/h (1 Bft) O-SO 0.00 h 0.0 UV-I 0 W/m 14.1 C 15.1 C 3.2 km/h (1 Bft)
12.09.2006 05:00 14.3 C 96 % 1019.1 hPa 0.0 l/m 0.4 km/h (0 Bft) O-SO 0.00 h 0.0 UV-I 0 W/m 13.7 C 14.3 C 0.8 km/h (0 Bft)
12.09.2006 06:00 14.0 C 97 % 1019.1 hPa 0.0 l/m 0.0 km/h (0 Bft) N 0.00 h 0.0 UV-I 0 W/m 13.6 C 14.0 C 0.1 km/h (0 Bft)
12.09.2006 07:00 14.2 C 98 % 1019.5 hPa 0.0 l/m 0.1 km/h (0 Bft) O-SO 0.00 h 0.0 UV-I 30 W/m 13.8 C 14.2 C 0.4 km/h (0 Bft)
12.09.2006 08:00 15.3 C 94 % 1019.9 hPa 0.0 l/m 0.3 km/h (0 Bft) O-SO 0.47 h 0.7 UV-I 133 W/m 14.3 C 15.3 C 1.0 km/h (0 Bft)
12.09.2006 09:00 17.1 C 88 % 1020.1 hPa 0.0 l/m 0.3 km/h (0 Bft) NW 1.00 h 1.3 UV-I 330 W/m 15.1 C 17.1 C 1.3 km/h (1 Bft)
12.09.2006 10:00 19.7 C 81 % 1019.9 hPa 0.0 l/m 1.6 km/h (1 Bft) W 0.78 h 2.4 UV-I 502 W/m 16.3 C 19.7 C 3.5 km/h (1 Bft)
12.09.2006 11:00 21.4 C 74 % 1019.9 hPa 0.0 l/m 3.4 km/h (1 Bft) S-SO 0.93 h 4.1 UV-I 603 W/m 16.6 C 21.4 C 6.4 km/h (2 Bft)
12.09.2006 12:00 22.9 C 65 % 1019.6 hPa 0.0 l/m 3.1 km/h (1 Bft) SO 1.00 h 5.1 UV-I 648 W/m 16.0 C 22.9 C 6.1 km/h (2 Bft)
12.09.2006 13:00 23.9 C 63 % 1019.0 hPa 0.0 l/m 2.6 km/h (1 Bft) O-SO 1.00 h 5.4 UV-I 669 W/m 16.3 C 23.9 C 4.9 km/h (1 Bft)
12.09.2006 14:00 24.9 C 58 % 1018.6 hPa 0.0 l/m 3.1 km/h (1 Bft) SO 1.00 h 4.8 UV-I 638 W/m 16.0 C 24.9 C 5.8 km/h (2 Bft)
12.09.2006 15:00 25.9 C 48 % 1017.9 hPa 0.0 l/m 5.8 km/h (2 Bft) W-NW 1.00 h 3.6 UV-I 561 W/m 14.1 C 25.9 C 8.7 km/h (2 Bft)
12.09.2006 16:00 26.2 C 46 % 1017.7 hPa 0.0 l/m 5.0 km/h (1 Bft) W-NW 0.87 h 2.2 UV-I 411 W/m 13.5 C 26.2 C 7.4 km/h (2 Bft)
12.09.2006 17:00 25.8 C 48 % 1017.2 hPa 0.0 l/m 3.7 km/h (1 Bft) W 0.92 h 1.1 UV-I 299 W/m 13.9 C 25.8 C 5.9 km/h (2 Bft)
12.09.2006 18:00 24.8 C 49 % 1017.2 hPa 0.0 l/m 1.0 km/h (0 Bft) W 0.50 h 0.6 UV-I 130 W/m 13.5 C 24.8 C 2.7 km/h (1 Bft)
12.09.2006 19:00 22.5 C 62 % 1017.2 hPa 0.0 l/m 2.9 km/h (1 Bft) O-SO 0.00 h 0.0 UV-I 21 W/m 14.7 C 22.5 C 4.3 km/h (1 Bft)
12.09.2006 20:00 19.7 C 75 % 1017.6 hPa 0.0 l/m 3.5 km/h (1 Bft) O-SO 0.00 h 0.0 UV-I 0 W/m 15.1 C 19.7 C 4.9 km/h (1 Bft)
12.09.2006 21:00 17.7 C 82 % 1017.8 hPa 0.0 l/m 3.5 km/h (1 Bft) O-SO 0.00 h 0.0 UV-I 0 W/m 14.5 C 17.7 C 5.0 km/h (1 Bft)
12.09.2006 22:00 16.6 C 85 % 1018.0 hPa 0.0 l/m 2.5 km/h (1 Bft) O 0.00 h 0.0 UV-I 0 W/m 14.0 C 16.6 C 3.9 km/h (1 Bft)
12.09.2006 23:00 15.7 C 89 % 1017.9 hPa 0.0 l/m 1.0 km/h (0 Bft) O-SO 0.00 h 0.0 UV-I 0 W/m 13.8 C 15.7 C 1.9 km/h (1 Bft)
13.09.2006 00:00 15.0 C 91 % 1018.1 hPa 0.0 l/m 2.9 km/h (1 Bft) O-SO 0.00 h 0.0 UV-I 0 W/m 13.6 C 15.0 C 4.1 km/h (1 Bft)
13.09.2006 01:00 14.3 C 93 % 1017.8 hPa 0.0 l/m 1.7 km/h (1 Bft) O-SO 0.00 h 0.0 UV-I 0 W/m 13.2 C 14.3 C 2.4 km/h (1 Bft)
13.09.2006 02:00 13.9 C 94 % 1017.5 hPa 0.0 l/m 1.9 km/h (1 Bft) O-SO 0.00 h 0.0 UV-I 0 W/m 12.9 C 13.9 C 3.2 km/h (1 Bft)
13.09.2006 03:00 13.5 C 96 % 1017.2 hPa 0.0 l/m 1.4 km/h (1 Bft) O-SO 0.00 h 0.0 UV-I 0 W/m 12.8 C 13.5 C 2.4 km/h (1 Bft)
13.09.2006 04:00 13.4 C 96 % 1017.2 hPa 0.0 l/m 1.7 km/h (1 Bft) O-SO 0.00 h 0.0 UV-I 0 W/m 12.8 C 13.4 C 2.5 km/h (1 Bft)
13.09.2006 05:00 13.6 C 96 % 1017.3 hPa 0.0 l/m 0.1 km/h (0 Bft) O-SO 0.00 h 0.0 UV-I 0 W/m 12.9 C 13.6 C 0.3 km/h (0 Bft)
13.09.2006 06:00 13.2 C 97 % 1017.3 hPa 0.0 l/m 1.2 km/h (1 Bft) O-SO 0.00 h 0.0 UV-I 0 W/m 12.7 C 13.2 C 2.5 km/h (1 Bft)
13.09.2006 07:00 13.0 C 98 % 1017.9 hPa 0.0 l/m 0.8 km/h (0 Bft) O-SO 0.00 h 0.0 UV-I 19 W/m 12.6 C 13.0 C 1.6 km/h (1 Bft)
13.09.2006 08:00 14.3 C 95 % 1017.9 hPa 0.0 l/m 0.0 km/h (0 Bft) N 0.02 h 0.7 UV-I 132 W/m 13.4 C 14.3 C 0.1 km/h (0 Bft)
13.09.2006 09:00 16.1 C 90 % 1017.7 hPa 0.0 l/m 0.8 km/h (0 Bft) O-SO 0.95 h 1.3 UV-I 285 W/m 14.5 C 16.1 C 1.8 km/h (1 Bft)
13.09.2006 10:00 18.4 C 82 % 1017.6 hPa 0.0 l/m 3.1 km/h (1 Bft) SO 1.00 h 2.6 UV-I 439 W/m 15.2 C 18.4 C 5.0 km/h (1 Bft)
13.09.2006 11:00 20.6 C 75 % 1017.1 hPa 0.0 l/m 1.2 km/h (1 Bft) W 1.00 h 3.8 UV-I 554 W/m 16.0 C 20.6 C 2.9 km/h (1 Bft)
13.09.2006 12:00 22.6 C 69 % 1016.6 hPa 0.0 l/m 2.0 km/h (1 Bft) O-SO 1.00 h 4.8 UV-I 628 W/m 16.7 C 22.6 C 4.2 km/h (1 Bft)
13.09.2006 13:00 24.1 C 64 % 1015.9 hPa 0.0 l/m 2.6 km/h (1 Bft) W-NW 1.00 h 5.1 UV-I 650 W/m 16.9 C 24.1 C 4.6 km/h (1 Bft)
13.09.2006 14:00 25.6 C 57 % 1015.1 hPa 0.0 l/m 3.7 km/h (1 Bft) O-SO 1.00 h 4.7 UV-I 629 W/m 16.5 C 25.6 C 6.2 km/h (2 Bft)
13.09.2006 15:00 26.5 C 54 % 1014.0 hPa 0.0 l/m 3.4 km/h (1 Bft) O-SO 1.00 h 3.5 UV-I 545 W/m 16.4 C 26.5 C 6.2 km/h (2 Bft)
13.09.2006 16:00 26.9 C 48 % 1013.0 hPa 0.0 l/m 4.1 km/h (1 Bft) O-SO 1.00 h 2.2 UV-I 426 W/m 15.0 C 26.9 C 7.0 km/h (2 Bft)
13.09.2006 17:00 26.4 C 49 % 1012.6 hPa 0.0 l/m 6.7 km/h (2 Bft) O-SO 1.00 h 1.1 UV-I 292 W/m 14.7 C 26.4 C 11.3 km/h (2 Bft)
13.09.2006 18:00 25.1 C 50 % 1012.5 hPa 0.0 l/m 4.8 km/h (1 Bft) O-SO 0.02 h 0.5 UV-I 76 W/m 14.1 C 25.1 C 8.2 km/h (2 Bft)
13.09.2006 19:00 22.7 C 60 % 1012.3 hPa 0.0 l/m 2.5 km/h (1 Bft) SO 0.00 h 0.0 UV-I 12 W/m 14.4 C 22.7 C 4.1 km/h (1 Bft)
13.09.2006 20:00 19.6 C 75 % 1012.5 hPa 0.0 l/m 2.6 km/h (1 Bft) O-SO 0.00 h 0.0 UV-I 0 W/m 15.0 C 19.6 C 3.8 km/h (1 Bft)
13.09.2006 21:00 17.9 C 82 % 1012.6 hPa 0.0 l/m 1.5 km/h (1 Bft) O-SO 0.00 h 0.0 UV-I 0 W/m 14.7 C 17.9 C 2.5 km/h (1 Bft)
13.09.2006 22:00 16.8 C 87 % 1012.4 hPa 0.0 l/m 0.9 km/h (0 Bft) O-SO 0.00 h 0.0 UV-I 0 W/m 14.6 C 16.8 C 1.9 km/h (1 Bft)
13.09.2006 23:00 16.2 C 90 % 1011.9 hPa 0.0 l/m 1.0 km/h (0 Bft) O-SO 0.00 h 0.0 UV-I 0 W/m 14.5 C 16.2 C 2.2 km/h (1 Bft)
14.09.2006 00:00 15.5 C 92 % 1011.4 hPa 0.0 l/m 0.9 km/h (0 Bft) O-NO 0.00 h 0.0 UV-I 0 W/m 14.1 C 15.5 C 2.0 km/h (1 Bft)
14.09.2006 01:00 15.1 C 95 % 1011.2 hPa 0.0 l/m 0.7 km/h (0 Bft) NO 0.00 h 0.0 UV-I 0 W/m 14.3 C 15.1 C 1.4 km/h (1 Bft)
14.09.2006 02:00 14.2 C 96 % 1010.9 hPa 0.0 l/m 0.3 km/h (0 Bft) O 0.00 h 0.0 UV-I 0 W/m 13.6 C 14.2 C 0.9 km/h (0 Bft)
14.09.2006 03:00 13.8 C 96 % 1010.7 hPa 0.0 l/m 0.4 km/h (0 Bft) O-NO 0.00 h 0.0 UV-I 0 W/m 13.2 C 13.8 C 1.3 km/h (1 Bft)
14.09.2006 04:00 13.2 C 97 % 1010.4 hPa 0.0 l/m 0.7 km/h (0 Bft) O 0.00 h 0.0 UV-I 0 W/m 12.8 C 13.2 C 1.4 km/h (1 Bft)
14.09.2006 05:00 13.2 C 98 % 1010.1 hPa 0.0 l/m 0.5 km/h (0 Bft) N-NW 0.00 h 0.0 UV-I 0 W/m 12.8 C 13.2 C 1.5 km/h (1 Bft)
14.09.2006 06:00 13.6 C 96 % 1010.1 hPa 0.0 l/m 1.1 km/h (0 Bft) N 0.00 h 0.0 UV-I 0 W/m 13.0 C 13.6 C 2.5 km/h (1 Bft)
14.09.2006 07:00 13.8 C 94 % 1009.9 hPa 0.0 l/m 0.6 km/h (0 Bft) N 0.00 h 0.0 UV-I 20 W/m 12.9 C 13.8 C 1.6 km/h (1 Bft)
14.09.2006 08:00 14.5 C 92 % 1009.5 hPa 0.0 l/m 0.5 km/h (0 Bft) N 0.00 h 0.6 UV-I 59 W/m 13.2 C 14.5 C 1.9 km/h (1 Bft)
14.09.2006 09:00 15.6 C 88 % 1009.6 hPa 0.0 l/m 1.4 km/h (1 Bft) N 0.22 h 1.2 UV-I 202 W/m 13.6 C 15.6 C 2.9 km/h (1 Bft)
14.09.2006 10:00 17.6 C 79 % 1009.2 hPa 0.0 l/m 1.6 km/h (1 Bft) NW 0.27 h 1.8 UV-I 239 W/m 13.9 C 17.6 C 3.3 km/h (1 Bft)
14.09.2006 11:00 18.7 C 74 % 1008.9 hPa 0.0 l/m 3.3 km/h (1 Bft) O-SO 0.00 h 2.2 UV-I 234 W/m 13.9 C 18.7 C 5.5 km/h (1 Bft)
14.09.2006 12:00 20.9 C 67 % 1008.3 hPa 0.0 l/m 2.4 km/h (1 Bft) O-SO 0.82 h 4.3 UV-I 488 W/m 14.6 C 20.9 C 4.4 km/h (1 Bft)
14.09.2006 13:00 22.2 C 58 % 1007.9 hPa 0.0 l/m 3.3 km/h (1 Bft) O-SO 0.57 h 4.2 UV-I 446 W/m 13.6 C 22.2 C 5.5 km/h (1 Bft)
14.09.2006 14:00 22.9 C 59 % 1007.2 hPa 0.0 l/m 1.9 km/h (1 Bft) O-SO 0.52 h 3.7 UV-I 426 W/m 14.4 C 22.9 C 3.8 km/h (1 Bft)
14.09.2006 15:00 23.9 C 58 % 1006.5 hPa 0.0 l/m 1.6 km/h (1 Bft) NW 1.00 h 3.3 UV-I 451 W/m 15.0 C 23.9 C 3.4 km/h (1 Bft)
14.09.2006 16:00 23.7 C 61 % 1005.9 hPa 0.0 l/m 1.7 km/h (1 Bft) W-NW 0.12 h 1.7 UV-I 241 W/m 15.7 C 23.7 C 3.4 km/h (1 Bft)
14.09.2006 17:00 23.0 C 63 % 1005.4 hPa 0.0 l/m 0.5 km/h (0 Bft) W-NW 0.00 h 0.7 UV-I 130 W/m 15.7 C 23.0 C 1.6 km/h (1 Bft)
14.09.2006 18:00 22.1 C 69 % 1004.9 hPa 0.0 l/m 0.3 km/h (0 Bft) NW 0.00 h 0.5 UV-I 55 W/m 16.2 C 22.1 C 1.2 km/h (1 Bft)
14.09.2006 19:00 20.5 C 79 % 1004.6 hPa 0.0 l/m 1.6 km/h (1 Bft) O 0.00 h 0.0 UV-I 18 W/m 16.7 C 20.5 C 2.3 km/h (1 Bft)
14.09.2006 20:00 19.2 C 86 % 1004.6 hPa 0.0 l/m 0.4 km/h (0 Bft) NO 0.00 h 0.0 UV-I 0 W/m 16.7 C 19.2 C 1.1 km/h (1 Bft)
14.09.2006 21:00 18.6 C 88 % 1004.6 hPa 0.0 l/m 0.8 km/h (0 Bft) NO 0.00 h 0.0 UV-I 0 W/m 16.6 C 18.6 C 1.3 km/h (1 Bft)
14.09.2006 22:00 18.1 C 91 % 1004.3 hPa 0.0 l/m 0.7 km/h (0 Bft) O 0.00 h 0.0 UV-I 0 W/m 16.6 C 18.1 C 1.6 km/h (1 Bft)
14.09.2006 23:00 17.4 C 92 % 1003.7 hPa 0.0 l/m 0.9 km/h (0 Bft) O 0.00 h 0.0 UV-I 0 W/m 16.2 C 17.4 C 1.8 km/h (1 Bft)
15.09.2006 00:00 16.7 C 94 % 1003.1 hPa 0.0 l/m 0.6 km/h (0 Bft) O 0.00 h 0.0 UV-I 0 W/m 15.8 C 16.7 C 1.6 km/h (1 Bft)
15.09.2006 01:00 16.2 C 96 % 1002.7 hPa 0.0 l/m 0.1 km/h (0 Bft) O-SO 0.00 h 0.0 UV-I 0 W/m 15.6 C 16.2 C 0.3 km/h (0 Bft)
15.09.2006 02:00 16.0 C 97 % 1002.3 hPa 0.0 l/m 0.0 km/h (0 Bft) O-NO 0.00 h 0.0 UV-I 0 W/m 15.5 C 16.0 C 0.5 km/h (0 Bft)
15.09.2006 03:00 15.7 C 97 % 1001.8 hPa 0.0 l/m 0.3 km/h (0 Bft) NO 0.00 h 0.0 UV-I 0 W/m 15.3 C 15.7 C 1.1 km/h (1 Bft)
15.09.2006 04:00 15.7 C 96 % 1001.3 hPa 0.0 l/m 0.4 km/h (0 Bft) NO 0.00 h 0.0 UV-I 0 W/m 15.0 C 15.7 C 1.2 km/h (1 Bft)
15.09.2006 05:00 16.0 C 95 % 1000.9 hPa 0.2 l/m 0.6 km/h (0 Bft) N-NW 0.00 h 0.0 UV-I 0 W/m 15.2 C 16.0 C 2.0 km/h (1 Bft)
15.09.2006 06:00 15.7 C 96 % 1000.4 hPa 0.4 l/m 0.3 km/h (0 Bft) NO 0.00 h 0.0 UV-I 0 W/m 15.2 C 15.7 C 1.1 km/h (0 Bft)
15.09.2006 07:00 15.5 C 97 % 1000.3 hPa 0.8 l/m 0.8 km/h (0 Bft) W-NW 0.00 h 0.0 UV-I 7 W/m 15.0 C 15.5 C 2.2 km/h (1 Bft)
15.09.2006 08:00 15.8 C 95 % 1000.2 hPa 0.2 l/m 0.3 km/h (0 Bft) O-SO 0.00 h 0.0 UV-I 30 W/m 15.0 C 15.8 C 1.2 km/h (1 Bft)
15.09.2006 09:00 16.1 C 95 % 1000.1 hPa 0.4 l/m 0.5 km/h (0 Bft) NO 0.00 h 0.6 UV-I 69 W/m 15.3 C 16.1 C 1.6 km/h (1 Bft)
15.09.2006 10:00 16.7 C 95 % 1000.5 hPa 0.0 l/m 0.3 km/h (0 Bft) NO 0.00 h 1.1 UV-I 127 W/m 15.9 C 16.7 C 1.1 km/h (1 Bft)
15.09.2006 11:00 17.2 C 95 % 1000.8 hPa 0.0 l/m 2.2 km/h (1 Bft) W-NW 0.00 h 1.5 UV-I 157 W/m 16.4 C 17.2 C 4.0 km/h (1 Bft)
15.09.2006 12:00 17.7 C 93 % 1001.3 hPa 0.0 l/m 1.9 km/h (1 Bft) N-NW 0.00 h 2.0 UV-I 193 W/m 16.6 C 17.7 C 3.4 km/h (1 Bft)
15.09.2006 13:00 18.6 C 90 % 1001.1 hPa 0.0 l/m 0.8 km/h (0 Bft) N 0.00 h 2.5 UV-I 239 W/m 16.8 C 18.6 C 2.2 km/h (1 Bft)
15.09.2006 14:00 19.0 C 88 % 1001.2 hPa 0.0 l/m 0.8 km/h (0 Bft) N-NW 0.00 h 2.1 UV-I 208 W/m 17.0 C 19.0 C 2.1 km/h (1 Bft)
15.09.2006 15:00 19.5 C 87 % 1001.2 hPa 0.0 l/m 3.3 km/h (1 Bft) N-NW 0.20 h 2.3 UV-I 289 W/m 17.3 C 19.5 C 5.6 km/h (1 Bft)
15.09.2006 16:00 21.3 C 80 % 1001.2 hPa 0.0 l/m 3.3 km/h (1 Bft) N-NW 0.97 h 2.3 UV-I 444 W/m 17.6 C 21.3 C 5.4 km/h (1 Bft)
15.09.2006 17:00 21.2 C 77 % 1001.4 hPa 0.0 l/m 3.8 km/h (1 Bft) W-NW 0.80 h 1.1 UV-I 250 W/m 17.0 C 21.2 C 6.0 km/h (2 Bft)
15.09.2006 18:00 20.5 C 81 % 1002.3 hPa 0.0 l/m 5.1 km/h (1 Bft) W-NW 0.12 h 0.6 UV-I 81 W/m 17.0 C 20.5 C 7.9 km/h (2 Bft)
15.09.2006 19:00 18.1 C 87 % 1003.3 hPa 0.0 l/m 1.9 km/h (1 Bft) N 0.37 h 0.0 UV-I 29 W/m 15.9 C 18.1 C 3.9 km/h (1 Bft)
15.09.2006 20:00 17.0 C 91 % 1004.5 hPa 0.0 l/m 1.9 km/h (1 Bft) W 0.00 h 0.0 UV-I 0 W/m 15.5 C 17.0 C 3.6 km/h (1 Bft)
15.09.2006 21:00 16.7 C 92 % 1005.4 hPa 0.0 l/m 2.5 km/h (1 Bft) W-NW 0.00 h 0.0 UV-I 0 W/m 15.3 C 16.7 C 4.6 km/h (1 Bft)
15.09.2006 22:00 16.0 C 94 % 1006.2 hPa 0.0 l/m 3.6 km/h (1 Bft) O-SO 0.00 h 0.0 UV-I 0 W/m 15.0 C 16.0 C 5.5 km/h (1 Bft)
15.09.2006 23:00 15.3 C 96 % 1005.7 hPa 0.0 l/m 0.8 km/h (0 Bft) O 0.00 h 0.0 UV-I 0 W/m 14.6 C 15.3 C 1.3 km/h (1 Bft)
16.09.2006 00:00 15.0 C 97 % 1006.2 hPa 0.0 l/m 1.1 km/h (1 Bft) O-SO 0.00 h 0.0 UV-I 0 W/m 14.5 C 15.0 C 2.4 km/h (1 Bft)
16.09.2006 01:00 14.9 C 98 % 1006.5 hPa 0.0 l/m 0.1 km/h (0 Bft) O-SO 0.00 h 0.0 UV-I 0 W/m 14.5 C 14.9 C 0.5 km/h (0 Bft)
16.09.2006 02:00 15.0 C 98 % 1006.6 hPa 0.0 l/m 1.0 km/h (0 Bft) O-SO 0.00 h 0.0 UV-I 0 W/m 14.7 C 15.0 C 2.0 km/h (1 Bft)
16.09.2006 03:00 15.2 C 98 % 1006.7 hPa 0.0 l/m 0.7 km/h (0 Bft) O-SO 0.00 h 0.0 UV-I 0 W/m 14.9 C 15.2 C 1.4 km/h (1 Bft)
16.09.2006 04:00 15.2 C 98 % 1006.7 hPa 0.0 l/m 0.7 km/h (0 Bft) W-NW 0.00 h 0.0 UV-I 0 W/m 14.9 C 15.2 C 1.8 km/h (1 Bft)
16.09.2006 05:00 15.2 C 98 % 1007.0 hPa 0.0 l/m 2.2 km/h (1 Bft) N 0.00 h 0.0 UV-I 0 W/m 14.8 C 15.2 C 4.3 km/h (1 Bft)
16.09.2006 06:00 15.1 C 98 % 1007.2 hPa 0.0 l/m 1.4 km/h (1 Bft) N 0.00 h 0.0 UV-I 0 W/m 14.8 C 15.1 C 3.4 km/h (1 Bft)
16.09.2006 07:00 15.2 C 98 % 1008.1 hPa 0.0 l/m 0.2 km/h (0 Bft) O-SO 0.00 h 0.0 UV-I 13 W/m 14.8 C 15.2 C 0.9 km/h (0 Bft)
16.09.2006 08:00 15.2 C 96 % 1008.8 hPa 0.0 l/m 2.6 km/h (1 Bft) NW 0.00 h 0.0 UV-I 28 W/m 14.5 C 15.2 C 4.7 km/h (1 Bft)
16.09.2006 09:00 15.4 C 94 % 1009.1 hPa 0.0 l/m 2.9 km/h (1 Bft) NW 0.00 h 0.7 UV-I 65 W/m 14.4 C 15.4 C 4.8 km/h (1 Bft)
16.09.2006 10:00 16.0 C 90 % 1009.4 hPa 0.0 l/m 2.8 km/h (1 Bft) W-NW 0.00 h 1.1 UV-I 113 W/m 14.4 C 16.0 C 5.0 km/h (1 Bft)
16.09.2006 11:00 16.6 C 88 % 1009.4 hPa 0.0 l/m 2.4 km/h (1 Bft) W-NW 0.00 h 1.4 UV-I 141 W/m 14.5 C 16.6 C 4.4 km/h (1 Bft)
16.09.2006 12:00 17.1 C 86 % 1009.6 hPa 0.0 l/m 5.7 km/h (1 Bft) W-NW 0.00 h 2.3 UV-I 244 W/m 14.8 C 17.1 C 8.3 km/h (2 Bft)
16.09.2006 13:00 18.6 C 80 % 1009.2 hPa 0.0 l/m 5.3 km/h (1 Bft) W-NW 0.12 h 3.8 UV-I 352 W/m 15.1 C 18.6 C 8.2 km/h (2 Bft)
16.09.2006 14:00 20.3 C 76 % 1008.6 hPa 0.0 l/m 4.8 km/h (1 Bft) W 0.88 h 4.2 UV-I 556 W/m 16.0 C 20.3 C 7.7 km/h (2 Bft)
16.09.2006 15:00 20.6 C 73 % 1008.4 hPa 0.0 l/m 7.8 km/h (2 Bft) W-NW 0.47 h 2.9 UV-I 362 W/m 15.7 C 20.6 C 11.5 km/h (2 Bft)
16.09.2006 16:00 20.9 C 73 % 1008.2 hPa 0.0 l/m 7.5 km/h (2 Bft) W-NW 0.80 h 2.1 UV-I 344 W/m 15.9 C 20.9 C 11.8 km/h (2 Bft)
16.09.2006 17:00 20.9 C 74 % 1008.2 hPa 0.0 l/m 5.3 km/h (1 Bft) W 0.85 h 1.1 UV-I 230 W/m 16.2 C 20.9 C 8.3 km/h (2 Bft)
16.09.2006 18:00 19.6 C 79 % 1008.6 hPa 0.0 l/m 5.9 km/h (2 Bft) W-NW 0.00 h 0.6 UV-I 69 W/m 15.7 C 19.6 C 10.2 km/h (2 Bft)
16.09.2006 19:00 18.4 C 82 % 1009.0 hPa 0.0 l/m 1.9 km/h (1 Bft) NW 0.02 h 0.0 UV-I 20 W/m 15.4 C 18.4 C 3.8 km/h (1 Bft)
16.09.2006 20:00 17.8 C 85 % 1009.2 hPa 0.0 l/m 1.1 km/h (1 Bft) W 0.00 h 0.0 UV-I 0 W/m 15.2 C 17.8 C 2.5 km/h (1 Bft)
16.09.2006 21:00 17.0 C 89 % 1009.5 hPa 0.0 l/m 0.9 km/h (0 Bft) N 0.00 h 0.0 UV-I 0 W/m 15.2 C 17.0 C 2.3 km/h (1 Bft)
16.09.2006 22:00 16.9 C 90 % 1009.5 hPa 0.0 l/m 1.3 km/h (1 Bft) N 0.00 h 0.0 UV-I 0 W/m 15.3 C 16.9 C 2.8 km/h (1 Bft)
16.09.2006 23:00 16.5 C 92 % 1009.5 hPa 0.0 l/m 0.8 km/h (0 Bft) NW 0.00 h 0.0 UV-I 0 W/m 15.2 C 16.5 C 2.5 km/h (1 Bft)
17.09.2006 00:00 16.3 C 92 % 1009.0 hPa 0.0 l/m 2.3 km/h (1 Bft) N 0.00 h 0.0 UV-I 0 W/m 15.0 C 16.3 C 4.4 km/h (1 Bft)
17.09.2006 01:00 16.2 C 93 % 1008.8 hPa 0.0 l/m 0.8 km/h (0 Bft) N 0.00 h 0.0 UV-I 0 W/m 15.0 C 16.2 C 2.2 km/h (1 Bft)
17.09.2006 02:00 16.3 C 92 % 1008.3 hPa 0.0 l/m 2.6 km/h (1 Bft) W-NW 0.00 h 0.0 UV-I 0 W/m 15.0 C 16.3 C 4.9 km/h (1 Bft)
17.09.2006 03:00 16.3 C 92 % 1008.1 hPa 0.0 l/m 3.0 km/h (1 Bft) W-NW 0.00 h 0.0 UV-I 0 W/m 15.0 C 16.3 C 5.5 km/h (1 Bft)
17.09.2006 04:00 16.2 C 92 % 1007.6 hPa 0.0 l/m 1.0 km/h (0 Bft) NW 0.00 h 0.0 UV-I 0 W/m 14.9 C 16.2 C 2.4 km/h (1 Bft)
17.09.2006 05:00 16.4 C 89 % 1007.2 hPa 0.0 l/m 5.5 km/h (1 Bft) W-NW 0.00 h 0.0 UV-I 0 W/m 14.5 C 16.4 C 9.1 km/h (2 Bft)
17.09.2006 06:00 16.7 C 86 % 1007.1 hPa 0.0 l/m 9.5 km/h (2 Bft) W-NW 0.00 h 0.0 UV-I 0 W/m 14.3 C 16.7 C 14.7 km/h (3 Bft)
17.09.2006 07:00 16.3 C 89 % 1007.9 hPa 0.8 l/m 5.6 km/h (1 Bft) W-NW 0.00 h 0.0 UV-I 0 W/m 14.6 C 16.3 C 9.9 km/h (2 Bft)
17.09.2006 08:00 15.5 C 96 % 1008.6 hPa 2.2 l/m 4.7 km/h (1 Bft) O-SO 0.00 h 0.0 UV-I 7 W/m 14.9 C 15.5 C 7.7 km/h (2 Bft)
17.09.2006 09:00 15.2 C 98 % 1009.0 hPa 3.6 l/m 3.1 km/h (1 Bft) W-NW 0.00 h 0.0 UV-I 24 W/m 14.9 C 15.2 C 6.0 km/h (2 Bft)
17.09.2006 10:00 15.3 C 99 % 1009.4 hPa 2.4 l/m 2.1 km/h (1 Bft) W-NW 0.00 h 0.7 UV-I 40 W/m 15.1 C 15.3 C 4.3 km/h (1 Bft)
17.09.2006 11:00 15.6 C 98 % 1009.5 hPa 2.0 l/m 1.3 km/h (1 Bft) SW 0.00 h 0.7 UV-I 36 W/m 15.3 C 15.6 C 3.2 km/h (1 Bft)
17.09.2006 12:00 15.7 C 98 % 1009.5 hPa 2.0 l/m 1.4 km/h (1 Bft) S-SO 0.00 h 0.0 UV-I 25 W/m 15.5 C 15.7 C 3.6 km/h (1 Bft)
17.09.2006 13:00 15.9 C 99 % 1009.5 hPa 2.6 l/m 1.0 km/h (0 Bft) O-SO 0.00 h 0.0 UV-I 30 W/m 15.7 C 15.9 C 2.6 km/h (1 Bft)
17.09.2006 14:00 16.2 C 98 % 1009.4 hPa 0.2 l/m 1.4 km/h (1 Bft) O-SO 0.00 h 0.8 UV-I 53 W/m 16.0 C 16.2 C 3.4 km/h (1 Bft)
17.09.2006 15:00 16.3 C 97 % 1009.3 hPa 0.0 l/m 2.7 km/h (1 Bft) W-NW 0.00 h 0.7 UV-I 44 W/m 15.9 C 16.3 C 5.6 km/h (1 Bft)
17.09.2006 16:00 16.3 C 96 % 1009.5 hPa 0.0 l/m 1.3 km/h (1 Bft) SW 0.00 h 0.0 UV-I 22 W/m 15.7 C 16.3 C 3.3 km/h (1 Bft)
17.09.2006 17:00 16.3 C 96 % 1009.5 hPa 0.0 l/m 1.7 km/h (1 Bft) S-SO 0.00 h 0.0 UV-I 19 W/m 15.7 C 16.3 C 4.3 km/h (1 Bft)
17.09.2006 18:00 16.2 C 97 % 1009.8 hPa 0.2 l/m 1.3 km/h (1 Bft) S-SO 0.00 h 0.0 UV-I 10 W/m 15.7 C 16.2 C 3.5 km/h (1 Bft)
17.09.2006 19:00 16.0 C 98 % 1010.2 hPa 0.2 l/m 1.9 km/h (1 Bft) S 0.00 h 0.0 UV-I 0 W/m 15.6 C 16.0 C 4.4 km/h (1 Bft)
17.09.2006 20:00 15.9 C 98 % 1010.7 hPa 0.0 l/m 2.6 km/h (1 Bft) S-SO 0.00 h 0.0 UV-I 0 W/m 15.5 C 15.9 C 5.6 km/h (1 Bft)
17.09.2006 21:00 15.8 C 98 % 1011.2 hPa 0.0 l/m 0.9 km/h (0 Bft) SW 0.00 h 0.0 UV-I 0 W/m 15.5 C 15.8 C 2.5 km/h (1 Bft)
17.09.2006 22:00 15.9 C 97 % 1011.3 hPa 0.4 l/m 2.8 km/h (1 Bft) S-SO 0.00 h 0.0 UV-I 0 W/m 15.4 C 15.9 C 5.7 km/h (1 Bft)
17.09.2006 23:00 15.6 C 97 % 1011.3 hPa 0.0 l/m 2.6 km/h (1 Bft) S-SO 0.00 h 0.0 UV-I 0 W/m 15.2 C 15.6 C 5.4 km/h (1 Bft)
Min-Datum _ 13.09.06 12.09.06 15.09.06 - 11.09.06 - - - - 12.09.06 13.09.06 11.09.06
_ Min-Zeit 07:23 15:53 09:00 - 00:00 - - - - 15:53 07:23 00:00
Minimum _ 12.7 C 41 % 1000.0 hPa - 0.0 km/h (0 Bft) - - - - 11.6 C 12.7 C 0.0 km/h (0 Bft)
Max-Datum _ 13.09.06 17.09.06 11.09.06 17.09.06 16.09.06 - 11.09.06 11.09.06 11.09.06 11.09.06 13.09.06 17.09.06
_ Max-Zeit 16:16 19:23 00:00 09:01 15:46 - 08:07 13:24 13:24 13:30 16:16 08:07
Maximum _ 27.2 C 100 % 1023.3 hPa 3.6 l/m 16.7 km/h
W-NW (3 Bft)
- 0.02 h 6.0 UV-I 954 W/m 18.8 C 27.2 C 27.0 km/h
O-SO (4 Bft)
Durchschnitt _ 18.0 C 85 % 1011.8 hPa #18.6 l/m 2.0 km/h (1 Bft) O-SO #31:56 h 2.2 UV-I 239 W/m 15.2 C 18.0 C 3.7 km/h (1 Bft)
© Kaiko 2006